Time;durP1;ratioP1;P1;durP2;ratioP2;P2;SDS_P1;SDS_P2;PMS_P1;PMS_P2;Temp;Humidity;BMP_temperature;BMP_pressure;BME280_temperature;BME280_humidity;BME280_pressure;Samples;Min_cycle;Max_cycle;Signal;HPM_P1;HPM_P2
2022/04/11 00:01:58;;;;;;;0.43;0.40;;;13.80;1.00;;;;;;5065408;28;20039;-44
2022/04/11 00:04:24;;;;;;;0.98;0.63;;;13.90;1.00;;;;;;5065624;28;20024;-44
2022/04/11 00:06:49;;;;;;;4.65;0.85;;;13.70;1.00;;;;;;5051623;28;20090;-44
2022/04/11 00:09:15;;;;;;;1.05;0.50;;;13.70;1.00;;;;;;5062100;28;20036;-43
2022/04/11 00:11:41;;;;;;;1.20;0.40;;;13.70;1.00;;;;;;5069082;28;20081;-44
2022/04/11 00:14:07;;;;;;;2.33;0.70;;;13.70;1.00;;;;;;5068209;28;20128;-44
2022/04/11 00:16:32;;;;;;;5.25;1.00;;;13.70;1.00;;;;;;5071548;28;20445;-46
2022/04/11 00:18:58;;;;;;;1.52;0.60;;;13.70;1.00;;;;;;5071609;28;20021;-44
2022/04/11 00:21:24;;;;;;;2.40;0.80;;;13.60;1.00;;;;;;5058473;28;20491;-47
2022/04/11 00:23:49;;;;;;;0.88;0.50;;;13.60;1.00;;;;;;5071508;28;20036;-49
2022/04/11 00:26:15;;;;;;;0.30;0.20;;;13.60;1.00;;;;;;5052317;28;20033;-45
2022/04/11 00:28:40;;;;;;;1.10;0.50;;;13.60;1.00;;;;;;5053468;28;20453;-43
2022/04/11 00:31:06;;;;;;;2.10;0.65;;;13.60;1.00;;;;;;5069038;28;20434;-44
2022/04/11 00:33:32;;;;;;;1.23;0.60;;;13.70;1.00;;;;;;5075687;28;20044;-44
2022/04/11 00:35:57;;;;;;;2.63;0.70;;;13.50;1.00;;;;;;5071528;28;20066;-45
2022/04/11 00:38:23;;;;;;;3.88;0.60;;;13.50;1.00;;;;;;5073994;28;20055;-44
2022/04/11 00:40:49;;;;;;;2.85;0.65;;;13.50;1.00;;;;;;5060043;28;20063;-44
2022/04/11 00:43:37;;;;;;;2.40;0.80;;;13.60;1.00;;;;;;5054386;28;20470;-44
2022/04/11 00:46:05;;;;;;;1.02;0.70;;;13.50;1.00;;;;;;5055868;28;20420;-45
2022/04/11 00:48:31;;;;;;;2.42;0.40;;;13.50;1.00;;;;;;5063775;28;20482;-44
2022/04/11 00:51:15;;;;;;;1.33;0.90;;;13.50;1.00;;;;;;5065669;28;20074;-46
2022/04/11 00:53:44;;;;;;;1.42;0.80;;;13.50;1.00;;;;;;5055019;28;20115;-44
2022/04/11 00:56:13;;;;;;;2.08;0.80;;;13.50;1.00;;;;;;5053538;28;20040;-43
2022/04/11 00:58:40;;;;;;;1.40;0.70;;;13.50;1.00;;;;;;5033537;28;20097;-43
2022/04/11 01:01:06;;;;;;;1.42;0.90;;;13.50;1.00;;;;;;5048974;28;20475;-43
2022/04/11 01:03:33;;;;;;;2.95;0.70;;;13.30;1.00;;;;;;5071715;28;20032;-43
2022/04/11 01:06:00;;;;;;;1.20;0.98;;;13.40;1.00;;;;;;5063080;28;20063;-44
2022/04/11 01:08:25;;;;;;;1.80;0.80;;;13.50;1.00;;;;;;5053140;28;20025;-45
2022/04/11 01:10:52;;;;;;;1.08;0.52;;;13.40;1.00;;;;;;5072147;28;20123;-44
2022/04/11 01:13:18;;;;;;;1.15;0.65;;;13.50;1.00;;;;;;5074514;28;20025;-45
2022/04/11 01:16:04;;;;;;;1.20;0.60;;;13.40;1.00;;;;;;5053991;28;20087;-46
2022/04/11 01:18:37;;;;;;;4.47;0.95;;;13.40;1.00;;;;;;5072384;28;20090;-45
2022/04/11 01:21:06;;;;;;;1.73;0.80;;;13.50;1.00;;;;;;5033996;28;20259;-46
2022/04/11 01:23:32;;;;;;;3.47;1.05;;;13.40;1.00;;;;;;5043590;28;20141;-45
2022/04/11 01:25:57;;;;;;;5.35;0.95;;;13.40;1.00;;;;;;5067797;28;20493;-46
2022/04/11 01:28:24;;;;;;;3.95;1.20;;;13.40;1.00;;;;;;5053273;28;20115;-44
2022/04/11 01:30:52;;;;;;;1.92;0.80;;;13.30;1.00;;;;;;5052507;28;20056;-46
2022/04/11 01:33:21;;;;;;;3.10;0.80;;;13.40;1.00;;;;;;5052084;28;20037;-44
2022/04/11 01:35:47;;;;;;;2.42;1.13;;;13.40;1.00;;;;;;5052641;28;20395;-45
2022/04/11 01:38:13;;;;;;;4.07;0.93;;;13.40;1.00;;;;;;5035610;28;20096;-44
2022/04/11 01:40:53;;;;;;;4.30;1.00;;;13.40;1.00;;;;;;5067896;28;20036;-44
2022/04/11 01:43:19;;;;;;;1.45;1.00;;;13.30;1.00;;;;;;5073515;28;20028;-45
2022/04/11 01:45:45;;;;;;;1.80;1.10;;;13.30;1.00;;;;;;5071123;28;20028;-46
2022/04/11 01:48:11;;;;;;;2.55;0.85;;;13.30;1.00;;;;;;5073262;28;20123;-44
2022/04/11 01:50:37;;;;;;;1.75;1.02;;;13.30;1.00;;;;;;5056192;28;20033;-48
2022/04/11 01:53:13;;;;;;;2.80;1.33;;;13.30;1.00;;;;;;5052844;28;20033;-48
2022/04/11 01:55:39;;;;;;;2.63;1.13;;;13.40;1.00;;;;;;5067582;28;20040;-46
2022/04/11 01:58:07;;;;;;;4.32;1.17;;;13.30;1.00;;;;;;5073158;28;20020;-46
2022/04/11 02:00:33;;;;;;;2.13;1.48;;;13.30;1.10;;;;;;5056887;28;20060;-48
2022/04/11 02:02:59;;;;;;;2.20;1.40;;;13.30;1.00;;;;;;5051914;28;20104;-47
2022/04/11 02:05:29;;;;;;;2.65;1.17;;;13.30;1.10;;;;;;5031512;28;20037;-45
2022/04/11 02:07:56;;;;;;;2.05;1.10;;;13.30;1.90;;;;;;5033020;28;20479;-44
2022/04/11 02:10:22;;;;;;;3.25;1.02;;;13.30;1.50;;;;;;5056520;28;20378;-44
2022/04/11 02:12:48;;;;;;;2.83;1.20;;;13.30;1.50;;;;;;5054767;28;20079;-44
2022/04/11 02:15:15;;;;;;;8.60;1.40;;;13.20;1.60;;;;;;5063603;28;20036;-44
2022/04/11 02:17:40;;;;;;;4.20;1.65;;;13.20;1.70;;;;;;5073321;28;20116;-44
2022/04/11 02:20:08;;;;;;;2.55;1.20;;;13.20;1.90;;;;;;5061469;28;20064;-44
2022/04/11 02:23:03;;;;;;;2.92;1.30;;;13.20;2.00;;;;;;5035541;28;20021;-44
2022/04/11 02:25:32;;;;;;;2.92;1.17;;;13.20;2.50;;;;;;5029845;28;20068;-44
2022/04/11 02:27:58;;;;;;;1.85;1.20;;;13.10;2.10;;;;;;5033598;28;20025;-47
2022/04/11 02:30:24;;;;;;;2.00;1.13;;;13.10;2.10;;;;;;5065337;28;20025;-46
2022/04/11 02:32:51;;;;;;;3.70;1.33;;;13.10;1.80;;;;;;5073148;28;20058;-46
2022/04/11 02:35:18;;;;;;;4.20;1.42;;;13.10;1.80;;;;;;5059864;28;20021;-46
2022/04/11 02:37:44;;;;;;;4.70;1.20;;;13.20;1.90;;;;;;5052955;28;20033;-44
2022/04/11 02:40:12;;;;;;;3.53;1.40;;;13.20;2.30;;;;;;5052267;28;20551;-44
2022/04/11 02:42:41;;;;;;;2.67;1.23;;;13.10;2.10;;;;;;5052763;28;20037;-44
2022/04/11 02:45:07;;;;;;;2.53;1.25;;;13.20;2.30;;;;;;5061341;28;20398;-44
2022/04/11 02:47:34;;;;;;;2.25;1.45;;;13.20;2.50;;;;;;5054805;28;20048;-44
2022/04/11 02:49:59;;;;;;;5.28;1.50;;;13.10;2.40;;;;;;5062674;28;20446;-45
2022/04/11 02:52:25;;;;;;;3.17;1.13;;;13.10;2.90;;;;;;5059028;28;20031;-44
2022/04/11 02:54:51;;;;;;;1.77;1.27;;;13.00;2.80;;;;;;5051839;28;20055;-46
2022/04/11 02:57:16;;;;;;;2.33;1.52;;;13.00;3.20;;;;;;5071228;28;20138;-44
2022/04/11 02:59:42;;;;;;;4.47;1.77;;;;;;;;;;5070954;28;20028;-44
2022/04/11 03:02:08;;;;;;;1.90;1.42;;;13.00;2.40;;;;;;5072783;28;20043;-43
2022/04/11 03:04:34;;;;;;;3.45;1.60;;;13.00;2.60;;;;;;5066908;28;20025;-45
2022/04/11 03:06:59;;;;;;;3.47;1.35;;;13.00;2.50;;;;;;5052437;28;20028;-45
2022/04/11 03:09:25;;;;;;;4.32;1.23;;;12.90;2.40;;;;;;5054064;28;20072;-44
2022/04/11 03:11:50;;;;;;;1.42;1.13;;;13.00;2.30;;;;;;5054345;28;20077;-44
2022/04/11 03:14:16;;;;;;;1.98;1.02;;;12.90;2.50;;;;;;5069553;28;20029;-46
2022/04/11 03:16:42;;;;;;;1.55;0.90;;;13.00;2.40;;;;;;5043668;28;20047;-44
2022/04/11 03:19:08;;;;;;;3.17;1.83;;;13.00;2.70;;;;;;5032503;28;20029;-46
2022/04/11 03:21:34;;;;;;;1.55;1.00;;;12.90;3.00;;;;;;5052367;28;20024;-45
2022/04/11 03:24:00;;;;;;;1.20;1.00;;;12.80;3.00;;;;;;5072308;28;20359;-45
2022/04/11 03:26:26;;;;;;;2.40;1.00;;;12.90;2.60;;;;;;5052500;28;20029;-48
2022/04/11 03:28:51;;;;;;;3.53;1.48;;;12.90;3.00;;;;;;5052359;28;20471;-47
2022/04/11 03:31:17;;;;;;;3.10;1.20;;;12.80;3.20;;;;;;5051339;28;20048;-45
2022/04/11 03:33:43;;;;;;;1.58;1.08;;;12.80;3.10;;;;;;5052124;28;20071;-44
2022/04/11 03:36:09;;;;;;;1.05;0.77;;;12.80;3.40;;;;;;5066210;28;20430;-44
2022/04/11 03:38:36;;;;;;;2.22;1.13;;;12.80;3.20;;;;;;5071972;28;20490;-44
2022/04/11 03:41:02;;;;;;;1.45;1.15;;;12.70;3.60;;;;;;5056027;28;20033;-45
2022/04/11 03:43:28;;;;;;;2.53;1.65;;;12.70;3.60;;;;;;5051871;28;20028;-44
2022/04/11 03:45:54;;;;;;;4.10;1.77;;;12.80;3.60;;;;;;5045753;28;20421;-44
2022/04/11 03:48:20;;;;;;;2.13;1.30;;;12.70;3.80;;;;;;5071884;28;20060;-45
2022/04/11 03:50:45;;;;;;;1.70;1.00;;;12.70;3.90;;;;;;5058008;28;20025;-45
2022/04/11 03:53:11;;;;;;;2.92;1.33;;;12.70;3.60;;;;;;5051080;28;20451;-45
2022/04/11 03:55:37;;;;;;;3.13;1.45;;;12.70;3.50;;;;;;5050904;28;20051;-48
2022/04/11 03:58:03;;;;;;;2.72;1.15;;;12.70;3.60;;;;;;5051704;28;20033;-47
2022/04/11 04:00:29;;;;;;;4.93;1.20;;;12.70;4.00;;;;;;5050941;28;20083;-44
2022/04/11 04:03:14;;;;;;;2.25;1.23;;;12.70;4.60;;;;;;5051991;28;20025;-48
2022/04/11 04:05:44;;;;;;;2.58;1.40;;;12.70;4.00;;;;;;5049099;28;20024;-51
2022/04/11 04:08:12;;;;;;;1.90;1.08;;;12.70;4.00;;;;;;5051507;28;20079;-48
2022/04/11 04:10:38;;;;;;;5.03;1.52;;;12.70;4.50;;;;;;5050686;28;20519;-44
2022/04/11 04:13:04;;;;;;;3.47;1.38;;;12.70;4.10;;;;;;5051897;28;20037;-47
2022/04/11 04:15:30;;;;;;;3.60;0.90;;;12.70;4.00;;;;;;5041187;28;20029;-45
2022/04/11 04:17:56;;;;;;;1.10;0.90;;;12.70;4.00;;;;;;5071461;28;20090;-45
2022/04/11 04:20:25;;;;;;;1.67;1.30;;;12.60;4.60;;;;;;5067760;28;20470;-45
2022/04/11 04:22:55;;;;;;;6.88;1.55;;;12.70;4.20;;;;;;5071856;28;20036;-45
2022/04/11 04:25:21;;;;;;;5.68;1.38;;;12.70;3.70;;;;;;5063171;28;20025;-46
2022/04/11 04:27:47;;;;;;;4.00;1.40;;;12.70;4.10;;;;;;5051406;28;20074;-45
2022/04/11 04:30:12;;;;;;;3.90;1.55;;;12.70;4.30;;;;;;5055925;28;20119;-45
2022/04/11 04:32:38;;;;;;;2.58;1.45;;;12.70;4.50;;;;;;5071526;28;20025;-45
2022/04/11 04:35:05;;;;;;;4.35;1.60;;;12.60;4.90;;;;;;5065459;28;20025;-45
2022/04/11 04:37:31;;;;;;;6.15;1.90;;;12.60;4.40;;;;;;5051269;28;20513;-45
2022/04/11 04:39:57;;;;;;;4.80;1.33;;;12.60;4.10;;;;;;5053407;28;20474;-46
2022/04/11 04:42:26;;;;;;;3.13;1.33;;;12.50;4.30;;;;;;5071590;28;20043;-46
2022/04/11 04:44:51;;;;;;;1.10;0.90;;;12.60;4.20;;;;;;5067461;28;20037;-46
2022/04/11 04:47:17;;;;;;;3.65;1.23;;;12.60;3.90;;;;;;5050306;28;20056;-46
2022/04/11 04:49:44;;;;;;;5.53;1.60;;;12.60;3.90;;;;;;5050601;28;20096;-46
2022/04/11 04:52:09;;;;;;;5.20;1.60;;;12.60;4.30;;;;;;5050470;28;20025;-45
2022/04/11 04:54:35;;;;;;;5.00;2.75;;;12.60;3.70;;;;;;5032606;28;20041;-45
2022/04/11 04:57:01;;;;;;;6.15;2.90;;;12.70;3.40;;;;;;5051009;28;20073;-45
2022/04/11 04:59:27;;;;;;;4.60;2.90;;;12.60;3.50;;;;;;5051236;28;20032;-45
2022/04/11 05:01:53;;;;;;;3.35;2.70;;;12.60;3.30;;;;;;5065446;28;20079;-45
2022/04/11 05:04:18;;;;;;;7.53;3.45;;;12.60;3.20;;;;;;5018956;28;20021;-44
2022/04/11 05:06:44;;;;;;;4.78;3.45;;;12.60;3.30;;;;;;5045488;28;20120;-45
2022/04/11 05:09:10;;;;;;;5.82;3.20;;;12.60;3.30;;;;;;5041592;28;20029;-47
2022/04/11 05:11:35;;;;;;;9.73;3.58;;;12.60;3.50;;;;;;5043151;28;20363;-44
2022/04/11 05:14:01;;;;;;;7.22;3.47;;;12.60;3.80;;;;;;5047457;28;20067;-45
2022/04/11 05:16:27;;;;;;;5.13;3.25;;;12.50;4.00;;;;;;5035790;28;20392;-45
2022/04/11 05:18:52;;;;;;;7.93;3.70;;;12.60;3.80;;;;;;5034389;28;20049;-46
2022/04/11 05:21:18;;;;;;;6.07;3.60;;;12.60;4.50;;;;;;5060324;28;20129;-45
2022/04/11 05:23:43;;;;;;;6.15;4.18;;;12.60;3.80;;;;;;5072047;28;20028;-45
2022/04/11 05:26:09;;;;;;;5.70;3.28;;;12.60;3.80;;;;;;5046238;28;20395;-45
2022/04/11 05:28:35;;;;;;;5.60;3.78;;;12.60;4.00;;;;;;5054397;28;20025;-44
2022/04/11 05:31:00;;;;;;;7.72;3.40;;;12.60;4.30;;;;;;5053899;28;20036;-45
2022/04/11 05:33:26;;;;;;;7.35;3.70;;;12.60;3.90;;;;;;5054673;28;20017;-45
2022/04/11 05:35:53;;;;;;;6.32;3.55;;;12.70;4.30;;;;;;5053392;28;20088;-45
2022/04/11 05:38:19;;;;;;;9.38;4.30;;;12.70;4.60;;;;;;5054055;28;20040;-45
2022/04/11 05:40:45;;;;;;;6.32;3.75;;;12.60;4.40;;;;;;5060956;28;20537;-45
2022/04/11 05:43:13;;;;;;;7.80;4.35;;;12.70;4.30;;;;;;5074198;28;20025;-45
2022/04/11 05:45:39;;;;;;;6.05;3.47;;;12.70;4.40;;;;;;5058853;28;20435;-45
2022/04/11 05:48:05;;;;;;;8.30;4.30;;;12.70;4.40;;;;;;5054057;28;20051;-45
2022/04/11 05:50:31;;;;;;;9.30;4.50;;;12.70;4.00;;;;;;5040726;28;20092;-45
2022/04/11 05:52:57;;;;;;;6.95;4.38;;;12.70;4.10;;;;;;5074153;28;20040;-45
2022/04/11 05:55:25;;;;;;;6.90;4.05;;;12.70;4.00;;;;;;5068345;28;20033;-45
2022/04/11 05:57:51;;;;;;;11.32;5.43;;;12.70;3.70;;;;;;5054033;28;20343;-45
2022/04/11 06:00:17;;;;;;;6.30;4.40;;;12.70;3.60;;;;;;5054597;28;20104;-45
2022/04/11 06:02:43;;;;;;;6.70;4.50;;;12.70;3.70;;;;;;5073846;28;20485;-46
2022/04/11 06:05:12;;;;;;;5.65;3.58;;;12.70;3.50;;;;;;5071121;28;20029;-44
2022/04/11 06:07:38;;;;;;;6.90;4.50;;;12.70;3.00;;;;;;5073554;28;20089;-44
2022/04/11 06:10:05;;;;;;;5.18;3.67;;;12.60;3.40;;;;;;5069342;28;20095;-45
2022/04/11 06:12:30;;;;;;;7.35;4.10;;;12.60;3.30;;;;;;5073842;28;20028;-44
2022/04/11 06:14:56;;;;;;;5.78;3.80;;;12.70;3.30;;;;;;5072302;28;20105;-46
2022/04/11 06:17:23;;;;;;;6.95;4.20;;;12.80;2.90;;;;;;5053404;28;20060;-44
2022/04/11 06:19:59;;;;;;;5.75;4.60;;;12.70;3.50;;;;;;5053420;28;20455;-44
2022/04/11 06:22:26;;;;;;;8.10;4.65;;;12.70;3.10;;;;;;5015843;28;20471;-44
2022/04/11 06:25:00;;;;;;;12.52;4.82;;;12.70;3.40;;;;;;5033184;28;20033;-46
2022/04/11 06:27:27;;;;;;;4.78;4.18;;;12.70;3.40;;;;;;5032961;28;20029;-45
2022/04/11 06:29:56;;;;;;;6.53;4.03;;;12.80;3.40;;;;;;5033524;28;20480;-45
2022/04/11 06:32:29;;;;;;;6.40;5.05;;;12.90;3.10;;;;;;5071946;28;20023;-45
2022/04/11 06:34:55;;;;;;;5.78;5.18;;;12.80;3.00;;;;;;5071788;28;20461;-44
2022/04/11 06:37:23;;;;;;;7.55;5.03;;;12.80;3.10;;;;;;5071061;28;20182;-45
2022/04/11 06:39:49;;;;;;;8.30;5.30;;;12.80;3.00;;;;;;5066416;28;20535;-44
2022/04/11 06:42:15;;;;;;;8.70;5.15;;;12.90;3.10;;;;;;5053195;28;20111;-45
2022/04/11 06:44:41;;;;;;;6.90;4.45;;;12.80;3.00;;;;;;5052750;28;20116;-44
2022/04/11 06:47:08;;;;;;;9.70;5.53;;;12.90;3.40;;;;;;5068208;28;20049;-45
2022/04/11 06:49:37;;;;;;;8.23;5.10;;;12.90;3.10;;;;;;5072639;28;20025;-44
2022/04/11 06:52:04;;;;;;;7.32;5.20;;;13.00;3.00;;;;;;5068374;28;20039;-45
2022/04/11 06:54:30;;;;;;;8.43;5.70;;;13.00;3.60;;;;;;5072842;28;20493;-44
2022/04/11 06:56:56;;;;;;;11.73;5.35;;;13.00;3.20;;;;;;5070636;28;20464;-45
2022/04/11 06:59:22;;;;;;;8.75;4.85;;;13.00;3.40;;;;;;5072661;28;20052;-45
2022/04/11 07:01:48;;;;;;;6.45;4.60;;;13.10;3.10;;;;;;5070809;28;20060;-46
2022/04/11 07:04:13;;;;;;;5.50;4.75;;;13.00;2.90;;;;;;5072842;28;20386;-44
2022/04/11 07:06:39;;;;;;;6.53;4.78;;;13.00;3.40;;;;;;5058844;28;20033;-46
2022/04/11 07:09:04;;;;;;;7.63;4.88;;;13.00;2.60;;;;;;5051526;28;20029;-45
2022/04/11 07:11:31;;;;;;;6.28;5.22;;;13.00;3.40;;;;;;5059252;28;20029;-48
2022/04/11 07:13:57;;;;;;;8.75;4.90;;;13.10;3.50;;;;;;5072597;28;20417;-46
2022/04/11 07:16:24;;;;;;;10.77;4.72;;;13.10;3.30;;;;;;5061959;28;20174;-46
2022/04/11 07:18:50;;;;;;;10.05;5.00;;;13.10;3.20;;;;;;5052465;28;20096;-46
2022/04/11 07:21:16;;;;;;;7.80;4.93;;;13.10;3.10;;;;;;5051649;28;20119;-49
2022/04/11 07:23:41;;;;;;;5.55;4.82;;;13.10;3.20;;;;;;5052414;28;20419;-44
2022/04/11 07:26:07;;;;;;;9.90;5.80;;;13.20;3.30;;;;;;5051610;28;20402;-45
2022/04/11 07:28:33;;;;;;;10.07;4.88;;;13.20;3.30;;;;;;5045654;28;20039;-48
2022/04/11 07:30:58;;;;;;;8.68;5.25;;;13.10;3.00;;;;;;5051899;28;20028;-41
2022/04/11 07:33:24;;;;;;;8.20;5.30;;;13.10;2.70;;;;;;5052283;28;20064;-45
2022/04/11 07:35:49;;;;;;;6.65;4.93;;;13.00;3.10;;;;;;5054859;28;20040;-44
2022/04/11 07:38:15;;;;;;;9.00;4.95;;;13.10;3.10;;;;;;5071562;28;20056;-46
2022/04/11 07:40:41;;;;;;;6.57;4.72;;;13.20;2.90;;;;;;5050057;28;20033;-45
2022/04/11 07:43:07;;;;;;;7.50;4.88;;;13.20;2.90;;;;;;5052383;28;20074;-44
2022/04/11 07:45:32;;;;;;;6.22;4.75;;;13.20;2.80;;;;;;5033563;28;20021;-44
2022/04/11 07:47:58;;;;;;;5.93;5.30;;;13.30;3.00;;;;;;5071812;28;20118;-47
2022/04/11 07:50:24;;;;;;;10.90;5.38;;;13.40;3.10;;;;;;5072023;28;20017;-46
2022/04/11 07:52:50;;;;;;;8.57;5.47;;;13.40;3.20;;;;;;5051357;28;20493;-45
2022/04/11 07:55:16;;;;;;;11.25;5.80;;;13.40;3.20;;;;;;5034179;28;20108;-48
2022/04/11 07:57:42;;;;;;;7.07;5.72;;;13.40;3.30;;;;;;5068413;28;20032;-47
2022/04/11 08:00:08;;;;;;;7.97;4.97;;;13.40;3.40;;;;;;5070657;28;20176;-45
2022/04/11 08:02:34;;;;;;;9.65;6.10;;;13.30;3.30;;;;;;5053606;28;20033;-45
2022/04/11 08:05:05;;;;;;;6.28;4.97;;;13.40;3.30;;;;;;5031297;28;20033;-46
2022/04/11 08:07:32;;;;;;;9.55;5.32;;;13.50;3.30;;;;;;5047773;28;20037;-46
2022/04/11 08:09:59;;;;;;;8.50;6.47;;;13.60;3.50;;;;;;5051748;28;20045;-47
2022/04/11 08:12:25;;;;;;;8.75;5.57;;;13.50;3.30;;;;;;5062518;28;20105;-45
2022/04/11 08:14:50;;;;;;;7.82;6.03;;;13.60;3.60;;;;;;5070181;28;20033;-47
2022/04/11 08:17:16;;;;;;;12.45;5.47;;;13.70;3.60;;;;;;5056806;28;20433;-45
2022/04/11 08:19:42;;;;;;;10.07;6.03;;;13.80;3.20;;;;;;5049970;28;20029;-43
2022/04/11 08:22:08;;;;;;;9.68;6.03;;;13.80;3.20;;;;;;5051592;28;20025;-44
2022/04/11 08:24:33;;;;;;;7.68;5.40;;;13.90;2.90;;;;;;5051404;28;20627;-44
2022/04/11 08:26:59;;;;;;;8.55;5.55;;;14.00;2.90;;;;;;5049436;28;20071;-44
2022/04/11 08:29:25;;;;;;;8.45;5.53;;;13.90;2.90;;;;;;5061138;28;20043;-47
2022/04/11 08:31:51;;;;;;;7.53;5.88;;;14.00;2.90;;;;;;5042864;28;20101;-45
2022/04/11 08:34:17;;;;;;;9.18;5.55;;;14.10;2.80;;;;;;5036610;28;20090;-44
2022/04/11 08:36:43;;;;;;;8.27;5.93;;;14.00;2.50;;;;;;5064984;28;20040;-48
2022/04/11 08:39:09;;;;;;;8.05;6.15;;;14.10;2.80;;;;;;5068166;28;20066;-51
2022/04/11 08:41:36;;;;;;;7.80;5.35;;;14.10;2.40;;;;;;5058099;28;20115;-44
2022/04/11 08:44:06;;;;;;;9.45;6.90;;;14.20;2.40;;;;;;5051556;28;20056;-45
2022/04/11 08:46:34;;;;;;;8.18;5.88;;;14.20;2.50;;;;;;5058820;28;20830;-46
2022/04/11 08:49:01;;;;;;;9.77;6.95;;;14.30;2.50;;;;;;5046730;28;20029;-44
2022/04/11 08:51:31;;;;;;;7.35;6.20;;;14.40;2.40;;;;;;5041215;28;20020;-47
2022/04/11 08:53:59;;;;;;;7.50;5.68;;;14.40;2.10;;;;;;5068972;28;20320;-45
2022/04/11 08:56:25;;;;;;;10.48;5.90;;;14.40;2.10;;;;;;5046499;28;20044;-48
2022/04/11 08:58:50;;;;;;;8.55;6.47;;;14.50;2.40;;;;;;5065635;28;20025;-47
2022/04/11 09:01:17;;;;;;;11.35;5.82;;;14.50;2.20;;;;;;5054478;28;20604;-44
2022/04/11 09:03:43;;;;;;;6.90;5.55;;;14.50;2.10;;;;;;5062004;28;20020;-44
2022/04/11 09:06:13;;;;;;;10.07;6.05;;;14.60;2.00;;;;;;5055836;28;20029;-44
2022/04/11 09:09:00;;;;;;;6.00;4.82;;;14.60;2.10;;;;;;5074890;28;20031;-44
2022/04/11 09:11:34;;;;;;;8.10;5.78;;;14.70;2.10;;;;;;5068724;28;20065;-47
2022/04/11 09:14:02;;;;;;;8.10;6.00;;;14.80;1.50;;;;;;5060739;28;20245;-45
2022/04/11 09:16:42;;;;;;;10.07;6.25;;;14.80;1.40;;;;;;5058685;28;20123;-46
2022/04/11 09:19:25;;;;;;;8.30;6.40;;;14.90;1.80;;;;;;5049167;28;20028;-45
2022/04/11 09:21:54;;;;;;;9.57;6.00;;;14.90;1.30;;;;;;5049568;28;20112;-45
2022/04/11 09:24:21;;;;;;;8.63;6.13;;;15.00;1.20;;;;;;5062164;28;20031;-45
2022/04/11 09:26:47;;;;;;;9.30;6.18;;;14.80;1.20;;;;;;5060257;28;20017;-48
2022/04/11 09:29:15;;;;;;;6.85;5.78;;;14.90;1.50;;;;;;5071652;28;20051;-43
2022/04/11 09:31:41;;;;;;;11.52;6.22;;;15.00;1.30;;;;;;5068965;28;20478;-44
2022/04/11 09:34:18;;;;;;;10.70;6.55;;;15.10;1.40;;;;;;5069311;28;20382;-44
2022/04/11 09:36:51;;;;;;;12.23;6.82;;;15.20;1.00;;;;;;5059374;28;20039;-45
2022/04/11 09:39:21;;;;;;;9.52;6.88;;;15.30;1.10;;;;;;5042877;28;20035;-45
2022/04/11 09:41:47;;;;;;;10.65;6.32;;;15.20;1.00;;;;;;5058936;28;20029;-46
2022/04/11 09:44:18;;;;;;;9.50;7.03;;;15.30;1.00;;;;;;5059311;28;20035;-46
2022/04/11 09:46:44;;;;;;;8.55;6.00;;;15.40;1.00;;;;;;5062230;28;20040;-47
2022/04/11 09:49:09;;;;;;;8.70;6.30;;;15.50;1.00;;;;;;5056826;28;20052;-45
2022/04/11 09:51:35;;;;;;;11.55;6.60;;;15.40;1.00;;;;;;5045050;28;20340;-44
2022/04/11 09:54:20;;;;;;;10.32;6.75;;;15.40;1.00;;;;;;5053528;28;20489;-44
2022/04/11 09:56:46;;;;;;;9.38;7.10;;;15.60;1.00;;;;;;5066408;28;20123;-44
2022/04/11 09:59:12;;;;;;;8.75;5.97;;;15.70;1.00;;;;;;5053895;28;20105;-44
2022/04/11 10:01:57;;;;;;;11.68;7.53;;;15.70;1.00;;;;;;5062017;28;20051;-48
2022/04/11 10:04:23;;;;;;;11.80;6.60;;;15.90;1.00;;;;;;5034822;28;20030;-45
2022/04/11 10:06:49;;;;;;;11.68;6.75;;;15.90;1.00;;;;;;5043640;28;20493;-44
2022/04/11 10:09:16;;;;;;;12.55;7.90;;;16.00;1.00;;;;;;5069153;28;20056;-45
2022/04/11 10:11:43;;;;;;;9.20;6.80;;;16.00;1.00;;;;;;5070188;28;20020;-44
2022/04/11 10:14:13;;;;;;;12.00;7.68;;;16.10;1.00;;;;;;5059009;28;20395;-45
2022/04/11 10:16:43;;;;;;;8.95;6.40;;;16.30;1.00;;;;;;5062019;28;20047;-45
2022/04/11 10:19:12;;;;;;;16.48;7.53;;;16.40;1.00;;;;;;5055686;28;20029;-48
2022/04/11 10:21:43;;;;;;;8.98;6.68;;;16.40;1.00;;;;;;5055889;28;20429;-45
2022/04/11 10:24:18;;;;;;;10.52;7.28;;;16.40;1.00;;;;;;5052124;28;20051;-45
2022/04/11 10:26:50;;;;;;;9.93;6.95;;;16.50;1.00;;;;;;5060567;28;20070;-45
2022/04/11 10:29:37;;;;;;;10.10;7.25;;;16.40;1.00;;;;;;5062184;28;20425;-45
2022/04/11 10:32:13;;;;;;;9.35;7.60;;;16.50;1.00;;;;;;5055607;28;20033;-47
2022/04/11 10:34:55;;;;;;;10.48;7.20;;;16.40;1.00;;;;;;5043580;28;20064;-45
2022/04/11 10:37:39;;;;;;;9.13;6.88;;;16.50;1.00;;;;;;5055273;28;21816;-44
2022/04/11 10:40:17;;;;;;;11.30;7.50;;;16.50;1.00;;;;;;5045056;28;20053;-44
2022/04/11 10:43:05;;;;;;;9.35;6.65;;;16.70;1.00;;;;;;5043287;28;20028;-44
2022/04/11 10:45:42;;;;;;;8.82;7.40;;;16.80;1.00;;;;;;5038210;28;20223;-45
2022/04/11 10:48:09;;;;;;;12.63;7.38;;;16.90;1.00;;;;;;5041556;28;20494;-44
2022/04/11 10:50:39;;;;;;;9.82;6.90;;;16.80;1.00;;;;;;5048958;28;20040;-45
2022/04/11 10:53:23;;;;;;;9.00;7.45;;;17.10;1.00;;;;;;5037651;28;20025;-44
2022/04/11 10:56:05;;;;;;;9.88;8.40;;;;;;;;;;5049010;28;20029;-44
2022/04/11 10:58:51;;;;;;;11.32;7.03;;;17.20;1.00;;;;;;5065879;28;20470;-47
2022/04/11 11:02:01;;;;;;;11.35;8.18;;;17.20;1.00;;;;;;5068357;28;20515;-45
2022/04/11 11:04:30;;;;;;;10.13;6.82;;;17.30;1.00;;;;;;5053890;28;20047;-47
2022/04/11 11:07:24;;;;;;;10.00;7.22;;;17.20;1.00;;;;;;5072784;28;20047;-44
2022/04/11 11:09:57;;;;;;;10.88;6.50;;;17.20;1.00;;;;;;5070871;28;20363;-45
2022/04/11 11:12:23;;;;;;;8.53;5.20;;;17.50;1.00;;;;;;5042726;28;20479;-46
2022/04/11 11:14:49;;;;;;;6.95;6.00;;;17.70;1.00;;;;;;5052493;28;20751;-41
2022/04/11 11:17:15;;;;;;;6.47;5.85;;;17.70;1.00;;;;;;5039696;28;20061;-45
2022/04/11 11:20:04;;;;;;;10.52;6.95;;;17.70;1.00;;;;;;5069466;28;20025;-45
2022/04/11 11:22:54;;;;;;;10.85;7.20;;;17.80;1.00;;;;;;5071172;28;20474;-46
2022/04/11 11:25:20;;;;;;;10.35;6.90;;;17.90;1.00;;;;;;5032600;28;20091;-50
2022/04/11 11:27:46;;;;;;;7.13;5.85;;;18.20;1.00;;;;;;5016700;28;20467;-46
2022/04/11 11:30:13;;;;;;;7.82;6.53;;;18.50;1.00;;;;;;5052452;28;20104;-49
2022/04/11 11:32:40;;;;;;;8.13;6.22;;;18.40;1.00;;;;;;5050449;28;20024;-44
2022/04/11 11:35:09;;;;;;;10.07;5.70;;;18.30;1.00;;;;;;5052212;28;20052;-44
2022/04/11 11:37:35;;;;;;;8.23;6.70;;;18.50;1.00;;;;;;5051068;28;20087;-44
2022/04/11 11:40:02;;;;;;;26.10;8.25;;;18.50;1.00;;;;;;5049806;28;20064;-41
2022/04/11 11:42:36;;;;;;;40.88;10.13;;;18.70;1.00;;;;;;5046747;28;20040;-41
2022/04/11 11:45:03;;;;;;;8.73;6.10;;;18.90;1.00;;;;;;5063839;28;20479;-43
2022/04/11 11:47:29;;;;;;;6.25;5.28;;;19.00;1.00;;;;;;5050517;28;20406;-42
2022/04/11 11:50:06;;;;;;;10.73;6.28;;;19.10;1.00;;;;;;5052125;28;20147;-43
2022/04/11 11:52:32;;;;;;;9.93;6.05;;;19.20;1.00;;;;;;5053802;28;20032;-43
2022/04/11 11:54:59;;;;;;;8.23;5.57;;;19.40;1.00;;;;;;5070364;28;20043;-43
2022/04/11 11:57:26;;;;;;;6.40;5.68;;;19.70;1.00;;;;;;5070519;28;20033;-43
2022/04/11 11:59:57;;;;;;;7.47;6.43;;;19.70;1.00;;;;;;5051985;28;20458;-43
2022/04/11 12:05:20;;;;;;;7.13;6.32;;;19.90;1.00;;;;;;5032310;28;20093;-46
2022/04/11 12:07:51;;;;;;;6.05;5.45;;;20.20;1.00;;;;;;5032686;28;20087;-43
2022/04/11 12:10:18;;;;;;;9.13;6.20;;;20.40;1.00;;;;;;5052031;28;20048;-44
2022/04/11 12:12:46;;;;;;;7.93;6.03;;;21.00;1.00;;;;;;5056389;28;20095;-43
2022/04/11 12:15:13;;;;;;;7.40;6.38;;;23.20;1.00;;;;;;5072002;28;20028;-44
2022/04/11 12:17:46;;;;;;;6.57;5.65;;;25.70;1.00;;;;;;5070731;28;20036;-44
2022/04/11 12:20:16;;;;;;;7.63;6.07;;;27.10;1.00;;;;;;5031586;28;20029;-45
2022/04/11 12:23:28;;;;;;;9.63;6.30;;;28.60;1.00;;;;;;5031559;28;20432;-43
2022/04/11 12:25:57;;;;;;;9.35;6.85;;;28.80;1.00;;;;;;5009628;28;20478;-44
2022/04/11 12:28:27;;;;;;;7.70;6.22;;;30.10;1.00;;;;;;5040754;28;20449;-44
2022/04/11 12:31:02;;;;;;;7.65;6.40;;;31.00;1.00;;;;;;5037750;28;20056;-45
2022/04/11 12:33:46;;;;;;;7.72;6.22;;;30.60;1.00;;;;;;5059913;28;20032;-43
2022/04/11 12:36:13;;;;;;;11.52;5.95;;;29.30;1.00;;;;;;5074515;28;20021;-43
2022/04/11 12:38:47;;;;;;;6.78;5.40;;;28.90;1.00;;;;;;5029022;28;20064;-43
2022/04/11 12:41:32;;;;;;;6.43;5.82;;;29.50;1.00;;;;;;5044244;28;20055;-43
2022/04/11 12:43:58;;;;;;;;;;;;;;;;;;5074074;28;20457;-43
2022/04/11 12:46:24;;;;;;;6.43;5.32;;;;;;;;;;5057216;28;19995;-42
2022/04/11 12:48:59;;;;;;;8.88;6.25;;;33.50;1.00;;;;;;5072970;28;20107;-43
2022/04/11 12:51:27;;;;;;;6.60;5.97;;;31.80;1.00;;;;;;5073695;28;20032;-44
2022/04/11 12:54:00;;;;;;;7.20;6.18;;;31.90;1.00;;;;;;5053261;28;20035;-46
2022/04/11 12:56:34;;;;;;;7.18;6.22;;;31.60;1.00;;;;;;5075225;28;20112;-43
2022/04/11 12:58:59;;;;;;;6.90;6.22;;;31.70;1.00;;;;;;5064255;28;20029;-46
2022/04/11 13:01:45;;;;;;;8.20;5.90;;;32.90;1.00;;;;;;5054987;28;20104;-44
2022/04/11 13:04:11;;;;;;;6.30;5.70;;;34.60;1.00;;;;;;5053813;28;20391;-45
2022/04/11 13:06:36;;;;;;;6.20;5.60;;;35.50;1.00;;;;;;5055156;28;20025;-45
2022/04/11 13:09:02;;;;;;;6.55;5.93;;;37.00;1.00;;;;;;5063244;28;20033;-43